• Join FlightAware (Why Join?)
  • Login
  • US Flag 
11:08PM EST


 

Airport Tracker/Info


-or-


 

Live Flight TrackerFlight Track Log ✈ WJA724 ✈ 27-Apr-2014 ✈ CYVR - CYYZ

Flight Track Log - Related Links

Times and Time Zones

All times are in EDT time to prevent confusion due to time zone crossing. See the WJA724 flight status page for this flight to view local times or setup timezone preferences in your user account.

Time Position Orientation Groundspeed Altitude Reporting Facility
EDT Latitude Longitude Course Direction KTS MPH feet Rate Location/Type
01:53AM 49.1667 -123.2667 107° East 170 196 2,000  Level Vancouver Center
01:54AM 49.1500 -123.3667 256° West 220 253 4,100 2,050 Climbing Vancouver Center
01:55AM 49.1259 -122.6190 101° East  Level FlightAware Approximate
01:55AM 49.1000 -123.3333 156° South 260 299 6,100  Level Vancouver Center
01:56AM 49.1655 -122.9942 107° East  Level FlightAware Approximate
01:56AM 49.1000 -123.2167 90° East 280 322 8,600  Level Vancouver Center
01:57AM 49.1000 -123.0833 90° East 290 334 10,500 1,800 Climbing Vancouver Center
01:58AM 49.1000 -122.9333 90° East 340 391 12,200 2,050 Climbing Vancouver Center
01:59AM 49.1000 -122.7833 90° East 360 414 14,600 2,550 Climbing Vancouver Center
02:00AM 49.1000 -122.6333 90° East 380 437 17,300 2,400 Climbing Vancouver Center
02:01AM 49.1167 -122.4500 82° East 390 449 19,400 1,950 Climbing Vancouver Center
02:02AM 49.1167 -122.3000 90° East 400 460 21,200 1,800 Climbing Vancouver Center
02:03AM 49.1167 -122.1167 90° East 420 483 23,000 1,850 Climbing Vancouver Center
02:04AM 49.1000 -121.9167 97° East 430 495 24,900 1,600 Climbing Vancouver Center
02:05AM 49.1167 -121.7333 82° East 440 506 26,200 1,300 Climbing Vancouver Center
02:06AM 49.1167 -121.5500 90° East 450 518 27,500 1,250 Climbing Vancouver Center
02:07AM 49.1333 -121.3500 83° East 460 529 28,700 1,200 Climbing Vancouver Center
02:08AM 49.1500 -121.1667 82° East 470 541 29,900 1,100 Climbing Vancouver Center
02:09AM 49.1667 -120.9667 83° East 470 541 30,900 1,150 Climbing Vancouver Center
02:10AM 49.2000 -120.7667 76° East 480 552 32,200 1,050 Climbing Vancouver Center
02:11AM 49.2333 -120.5500 77° East 470 541 33,000 900 Climbing Vancouver Center
02:12AM 49.2500 -120.3500 83° East 480 552 34,000 667 Climbing Vancouver Center
02:14AM 49.2833 -119.9667 82° East 480 552 35,000 333 Climbing Vancouver Center
02:15AM 49.3167 -119.7500 77° East 480 552 35,000  Level Vancouver Center
02:17AM 49.3667 -119.3667 79° East 480 552 35,000  Level Vancouver Center
02:18AM 49.3833 -119.1500 83° East 470 541 35,000  Level Vancouver Center
02:19AM 49.4000 -118.9500 83° East 470 541 35,000  Level Vancouver Center
02:20AM 49.4333 -118.7333 77° East 470 541 35,000  Level Vancouver Center
02:21AM 49.4500 -118.5500 82° East 470 541 35,000  Level Vancouver Center
02:22AM 49.4667 -118.3833 81° East 470 541 35,000  Level Vancouver Center
02:23AM 49.4833 -118.1667 83° East 470 541 35,000  Level Vancouver Center
02:24AM 49.5000 -117.9667 83° East 470 541 35,000  Level Vancouver Center
02:25AM 49.5333 -117.7500 77° East 470 541 35,000  Level Vancouver Center
02:26AM 49.5333 -117.5667 90° East 470 541 35,000  Level Vancouver Center
02:27AM 49.5500 -117.3667 83° East 470 541 35,000  Level Vancouver Center
02:28AM 49.5833 -117.1833 74° East 470 541 35,000  Level Vancouver Center
02:29AM 49.6000 -116.9667 83° East 470 541 35,000  Level Vancouver Center
02:30AM 49.6000 -116.7833 90° East 460 529 35,000  Level Vancouver Center
02:31AM 49.6333 -116.5833 75° East 460 529 35,000  Level Vancouver Center
02:32AM 49.6500 -116.3833 83° East 460 529 35,000  Level Vancouver Center
02:33AM 49.6500 -116.1833 90° East 470 541 35,000  Level Vancouver Center
02:34AM 49.6667 -115.9667 83° East 470 541 35,000  Level Vancouver Center
02:35AM 49.6833 -115.7667 83° East 470 541 35,000  Level Vancouver Center
02:36AM 49.7000 -115.5833 82° East 470 541 35,000  Level Vancouver Center
02:37AM 49.7167 -115.4000 82° East 470 541 35,000  Level Vancouver Center
02:38AM 49.7333 -115.1833 83° East 460 529 35,000  Level Vancouver Center
02:39AM 49.7500 -115.0000 82° East 460 529 35,000  Level Vancouver Center
02:40AM 49.7500 -114.8000 90° East 460 529 35,000  Level Vancouver Center
02:41AM 49.7667 -114.6000 83° East 460 529 35,000  Level Vancouver Center
02:42AM 49.7833 -114.4000 83° East 450 518 35,000  Level Vancouver Center
02:43AM 49.7833 -114.2167 90° East 450 518 35,000  Level Vancouver Center
02:44AM 49.8000 -114.0333 82° East 450 518 35,000  Level Vancouver Center
02:45AM 49.8167 -113.8167 83° East 450 518 35,000  Level Vancouver Center
02:46AM 49.8167 -113.6333 90° East 450 518 35,000  Level Vancouver Center
02:47AM 49.8333 -113.4500 82° East 450 518 35,000  Level Vancouver Center
02:48AM 49.8500 -113.2667 82° East 450 518 35,000  Level Vancouver Center
02:49AM 49.8667 -113.0500 83° East 450 518 35,000  Level Vancouver Center
02:50AM 49.8667 -112.8667 90° East 450 518 35,000  Level Vancouver Center
02:50AM 49.8833 -112.8333 52° Northeast 460 529 35,000  Level Winnipeg Center
02:51AM 49.8667 -112.6167 97° East 450 518 35,000  Level Winnipeg Center
02:52AM 49.8833 -112.4333 82° East 450 518 35,000  Level Winnipeg Center
02:53AM 49.9000 -112.2333 83° East 450 518 35,000  Level Winnipeg Center
02:54AM 49.9000 -112.0500 90° East 450 518 35,000  Level Winnipeg Center
02:55AM 49.9167 -111.8667 82° East 450 518 35,000  Level Winnipeg Center
02:56AM 49.9167 -111.6667 90° East 440 506 35,000  Level Winnipeg Center
02:57AM 49.9333 -111.4833 82° East 440 506 35,000  Level Winnipeg Center
02:58AM 49.9333 -111.3000 90° East 440 506 35,000  Level Winnipeg Center
02:59AM 49.9333 -111.1167 90° East 440 506 35,000  Level Winnipeg Center
03:00AM 49.9500 -110.9000 83° East 440 506 35,000  Level Winnipeg Center
03:01AM 49.9500 -110.7167 90° East 440 506 35,000  Level Winnipeg Center
03:02AM 49.9667 -110.5333 82° East 440 506 35,000  Level Winnipeg Center
03:03AM 49.9667 -110.3667 90° East 440 506 35,000  Level Winnipeg Center
03:04AM 49.9667 -110.1500 90° East 430 495 35,000  Level Winnipeg Center
03:05AM 50.0000 -109.9667 74° East 440 506 35,000  Level Winnipeg Center
03:06AM 50.0000 -109.7833 90° East 440 506 35,000  Level Winnipeg Center
03:07AM 50.0167 -109.5833 83° East 440 506 35,000  Level Winnipeg Center
03:08AM 50.0333 -109.4000 82° East 440 506 35,000  Level Winnipeg Center
03:09AM 50.0500 -109.2167 82° East 440 506 35,000  Level Winnipeg Center
03:10AM 50.0667 -109.0500 81° East 430 495 35,000  Level Winnipeg Center
03:11AM 50.0833 -108.8333 83° East 440 506 35,000  Level Winnipeg Center
03:12AM 50.0833 -108.6500 90° East 440 506 35,000  Level Winnipeg Center
03:13AM 50.1000 -108.4833 81° East 440 506 35,000  Level Winnipeg Center
03:14AM 50.1167 -108.3000 82° East 440 506 35,000  Level Winnipeg Center
03:15AM 50.1333 -108.0833 83° East 440 506 35,000  Level Winnipeg Center
03:16AM 50.1500 -107.9000 82° East 430 495 35,000  Level Winnipeg Center
03:17AM 50.1667 -107.7333 81° East 430 495 35,000  Level Winnipeg Center
03:18AM 50.1667 -107.5167 90° East 430 495 35,000  Level Winnipeg Center
03:19AM 50.1833 -107.3667 80° East 430 495 35,000  Level Winnipeg Center
03:20AM 50.2000 -107.1500 83° East 430 495 35,000  Level Winnipeg Center
03:21AM 50.2000 -106.9667 90° East 430 495 35,000  Level Winnipeg Center
03:22AM 50.2167 -106.7833 82° East 420 483 35,000  Level Winnipeg Center
03:23AM 50.2333 -106.6167 81° East 420 483 35,000  Level Winnipeg Center
03:24AM 50.2500 -106.4333 82° East 420 483 35,000  Level Winnipeg Center
03:25AM 50.2333 -106.2500 98° East 420 483 35,000  Level Winnipeg Center
03:26AM 50.2500 -106.0667 82° East 420 483 35,000  Level Winnipeg Center
03:27AM 50.2667 -105.8833 82° East 420 483 35,000  Level Winnipeg Center
03:28AM 50.2667 -105.7000 90° East 420 483 35,000  Level Winnipeg Center
03:29AM 50.2833 -105.5167 82° East 420 483 35,000  Level Winnipeg Center
03:30AM 50.3000 -105.3333 82° East 420 483 35,000  Level Winnipeg Center
03:31AM 50.2833 -105.1500 98° East 420 483 35,000  Level Winnipeg Center
03:32AM 50.3000 -104.9667 82° East 420 483 35,000  Level Winnipeg Center
03:33AM 50.3167 -104.7833 82° East 420 483 35,000  Level Winnipeg Center
03:34AM 50.3333 -104.6000 82° East 420 483 35,000  Level Winnipeg Center
03:35AM 50.3167 -104.4167 98° East 420 483 35,000  Level Winnipeg Center
03:36AM 50.3333 -104.2333 82° East 430 495 35,000  Level Winnipeg Center
03:37AM 50.3500 -104.0500 82° East 430 495 35,000  Level Winnipeg Center
03:38AM 50.3500 -103.8667 90° East 430 495 35,000  Level Winnipeg Center
03:39AM 50.3500 -103.6833 90° East 430 495 35,000  Level Winnipeg Center
03:40AM 50.3667 -103.4833 82° East 430 495 35,000  Level Winnipeg Center
03:41AM 50.3667 -103.3167 90° East 420 483 35,000  Level Winnipeg Center
03:42AM 50.3667 -103.1167 90° East 420 483 35,000  Level Winnipeg Center
03:43AM 50.3833 -102.9500 81° East 420 483 35,000  Level Winnipeg Center
03:44AM 50.3833 -102.7667 90° East 420 483 35,000  Level Winnipeg Center
03:45AM 50.3833 -102.5500 90° East 420 483 35,000  Level Winnipeg Center
03:46AM 50.3833 -102.4000 90° East 420 483 35,000  Level Winnipeg Center
03:47AM 50.4000 -102.2000 82° East 420 483 35,000  Level Winnipeg Center
03:48AM 50.4000 -102.0333 90° East 420 483 35,000  Level Winnipeg Center
03:49AM 50.4000 -101.8167 90° East 430 495 35,000 450 Level Winnipeg Center
03:50AM 50.4000 -101.6333 90° East 430 495 35,900 800 Climbing Winnipeg Center
03:51AM 50.4167 -101.4500 82° East 430 495 36,600 550 Climbing Winnipeg Center
03:52AM 50.4000 -101.2667 98° East 430 495 37,000 200 Climbing Winnipeg Center
03:53AM 50.4000 -101.0833 90° East 430 495 37,000  Level Winnipeg Center
03:54AM 50.4167 -100.9000 82° East 430 495 37,000  Level Winnipeg Center
03:55AM 50.4000 -100.7000 97° East 430 495 37,000  Level Winnipeg Center
03:56AM 50.4167 -100.5167 82° East 430 495 37,000  Level Winnipeg Center
03:57AM 50.4167 -100.3333 90° East 430 495 37,000  Level Winnipeg Center
03:58AM 50.4000 -100.1500 98° East 430 495 37,000  Level Winnipeg Center
03:59AM 50.4167 -99.9333 83° East 430 495 37,000  Level Winnipeg Center
04:00AM 50.4167 -99.7500 90° East 430 495 37,000  Level Winnipeg Center
04:01AM 50.4167 -99.6000 90° East 430 495 37,000  Level Winnipeg Center
04:02AM 50.4000 -99.3833 97° East 440 506 37,000  Level Winnipeg Center
04:03AM 50.4167 -99.1667 83° East 440 506 37,000  Level Winnipeg Center
04:04AM 50.4167 -98.9833 90° East 440 506 37,000  Level Winnipeg Center
04:05AM 50.4000 -98.8000 98° East 440 506 37,000  Level Winnipeg Center
04:06AM 50.4000 -98.6167 90° East 440 506 37,000  Level Winnipeg Center
04:07AM 50.3833 -98.4333 98° East 430 495 37,000  Level Winnipeg Center
04:08AM 50.3667 -98.2167 97° East 440 506 37,000  Level Winnipeg Center
04:09AM 50.3667 -98.0333 90° East 440 506 37,000  Level Winnipeg Center
04:10AM 50.3500 -97.8500 98° East 440 506 37,000  Level Winnipeg Center
04:11AM 50.3333 -97.6667 98° East 440 506 37,000  Level Winnipeg Center
04:12AM 50.3167 -97.4833 98° East 440 506 37,000  Level Winnipeg Center
04:13AM 50.3000 -97.2833 97° East 440 506 37,000  Level Winnipeg Center
04:14AM 50.2833 -97.1000 98° East 440 506 37,000  Level Winnipeg Center
04:15AM 50.2667 -96.8833 97° East 440 506 37,000  Level Winnipeg Center
04:16AM 50.2500 -96.7000 98° East 440 506 37,000  Level Winnipeg Center
04:17AM 50.2333 -96.5167 98° East 440 506 37,000  Level Winnipeg Center
04:18AM 50.2167 -96.3333 98° East 440 506 37,000  Level Winnipeg Center
04:19AM 50.2000 -96.1500 98° East 450 518 37,000  Level Winnipeg Center
04:20AM 50.1833 -95.9500 97° East 450 518 37,000  Level Winnipeg Center
04:21AM 50.1500 -95.7667 106° East 450 518 37,000  Level Winnipeg Center
04:22AM 50.1333 -95.5500 97° East 450 518 37,000  Level Winnipeg Center
04:23AM 50.1333 -95.3667 90° East 450 518 37,000  Level Winnipeg Center
04:24AM 50.1167 -95.1667 97° East 450 518 37,000  Level Winnipeg Center
04:25AM 50.1000 -94.9833 98° East 450 518 37,000  Level Winnipeg Center
04:26AM 50.0833 -94.7833 97° East 450 518 37,000  Level Winnipeg Center
04:27AM 50.0500 -94.6000 106° East 450 518 37,000  Level Winnipeg Center
04:28AM 50.0333 -94.3833 97° East 450 518 37,000  Level Winnipeg Center
04:29AM 50.0167 -94.2000 98° East 450 518 37,000  Level Winnipeg Center
04:30AM 49.9833 -94.0167 106° East 450 518 37,000  Level Winnipeg Center
04:31AM 49.9667 -93.8167 97° East 450 518 37,000  Level Winnipeg Center
04:32AM 49.9500 -93.6333 98° East 460 529 37,000  Level Winnipeg Center
04:33AM 49.9167 -93.4333 104° East 460 529 37,000  Level Winnipeg Center
04:34AM 49.9000 -93.2167 97° East 460 529 37,000  Level Winnipeg Center
04:35AM 49.8833 -93.0500 99° East 460 529 37,000  Level Winnipeg Center
04:36AM 49.8500 -92.8333 103° East 460 529 37,000  Level Winnipeg Center
04:37AM 49.8167 -92.6333 104° East 470 541 37,000  Level Winnipeg Center
04:38AM 49.7667 -92.4500 113° Southeast 460 529 37,000  Level Winnipeg Center
04:39AM 49.7333 -92.2500 104° East 460 529 37,000  Level Winnipeg Center
04:40AM 49.7000 -92.0667 106° East 460 529 37,000  Level Winnipeg Center
04:41AM 49.6667 -91.8667 104° East 460 529 37,000  Level Winnipeg Center
04:42AM 49.6167 -91.7000 115° Southeast 460 529 37,000  Level Winnipeg Center
04:43AM 49.5833 -91.5167 106° East 460 529 37,000  Level Winnipeg Center
04:44AM 49.5333 -91.3167 111° Southeast 470 541 37,000  Level Winnipeg Center
04:45AM 49.5167 -91.1333 98° East 470 541 37,000  Level Winnipeg Center
04:46AM 49.4667 -90.9333 111° Southeast 470 541 37,000  Level Winnipeg Center
04:47AM 49.4167 -90.7333 111° Southeast 470 541 37,000  Level Winnipeg Center
04:48AM 49.3833 -90.5667 107° East 470 541 37,000  Level Winnipeg Center
04:49AM 49.3333 -90.3667 111° Southeast 480 552 37,000  Level Winnipeg Center
04:50AM 49.2833 -90.1667 111° Southeast 480 552 37,000  Level Winnipeg Center
04:51AM 49.2500 -89.9833 106° East 470 541 37,000  Level Winnipeg Center
04:52AM 49.2000 -89.8000 113° Southeast 470 541 37,000  Level Winnipeg Center
04:53AM 49.1667 -89.6000 104° East 480 552 37,000  Level Winnipeg Center
04:54AM 49.1167 -89.4000 111° Southeast 480 552 37,000  Level Winnipeg Center
04:55AM 49.0833 -89.2167 105° East 480 552 37,000  Level Winnipeg Center
04:56AM 49.0333 -89.0167 111° Southeast 480 552 37,000  Level Winnipeg Center
04:57AM 48.9833 -88.8333 113° Southeast 480 552 37,000  Level Winnipeg Center
04:58AM 48.9333 -88.6333 111° Southeast 480 552 37,000  Level Winnipeg Center
04:59AM 48.8833 -88.4667 114° Southeast 490 564 37,000  Level Winnipeg Center
05:00AM 48.8333 -88.2333 108° East 490 564 37,000  Level Winnipeg Center
05:01AM 48.8000 -88.0667 107° East 490 564 37,000  Level Winnipeg Center
05:02AM 48.7500 -87.8500 109° East 490 564 37,000  Level Winnipeg Center
05:03AM 48.7000 -87.6833 114° Southeast 490 564 37,000  Level Winnipeg Center
05:04AM 48.6500 -87.4833 111° Southeast 490 564 37,000  Level Winnipeg Center
05:05AM 48.6000 -87.2833 111° Southeast 490 564 37,000  Level Winnipeg Center
05:06AM 48.5500 -87.1000 112° Southeast 490 564 37,000  Level Winnipeg Center
05:07AM 48.5000 -86.9000 111° Southeast 490 564 37,000 -50 Level Winnipeg Center
05:08AM 48.4500 -86.7167 112° Southeast 490 564 36,900 -550 Descending Winnipeg Center
05:09AM 48.4000 -86.5000 109° East 500 575 35,900 -950 Descending Winnipeg Center
05:10AM 48.3500 -86.3333 114° Southeast 500 575 35,000 -450 Descending Winnipeg Center
05:11AM 48.3000 -86.1333 111° Southeast 500 575 35,000  Level Winnipeg Center
05:12AM 48.2833 -86.0167 102° East 500 575 35,000  Level Toronto Center
05:13AM 48.2000 -85.8333 124° Southeast 490 564 35,000  Level Toronto Center
05:14AM 48.1167 -85.7000 133° Southeast 490 564 35,000  Level Toronto Center
05:15AM 48.0167 -85.5667 138° Southeast 490 564 35,000  Level Toronto Center
05:16AM 47.9167 -85.4000 132° Southeast 490 564 35,000  Level Toronto Center
05:17AM 47.8333 -85.2667 133° Southeast 490 564 35,000 -300 Level Toronto Center
05:18AM 47.7167 -85.1000 136° Southeast 490 564 34,400 -800 Descending Toronto Center
05:19AM 47.6500 -84.9833 130° Southeast 480 552 33,400 -1,050 Descending Toronto Center
05:20AM 47.5333 -84.8333 139° Southeast 480 552 32,300 -1,000 Descending Toronto Center
05:21AM 47.4500 -84.6833 129° Southeast 470 541 31,400 -650 Descending Toronto Center
05:22AM 47.3500 -84.5500 138° Southeast 490 564 31,000 -200 Descending Toronto Center
05:23AM 47.2500 -84.4000 134° Southeast 500 575 31,000  Level Toronto Center
05:24AM 47.1500 -84.2667 138° Southeast 510 587 31,000  Level Toronto Center
05:25AM 47.0667 -84.1167 129° Southeast 510 587 31,000  Level Toronto Center
05:26AM 46.9667 -83.9500 131° Southeast 510 587 31,000  Level Toronto Center
05:27AM 46.8500 -83.8333 146° Southeast 500 575 31,000  Level Toronto Center
05:28AM 46.7667 -83.6667 126° Southeast 500 575 31,000  Level Toronto Center
05:29AM 46.6667 -83.5500 141° Southeast 500 575 31,000  Level Toronto Center
05:30AM 46.5500 -83.3833 135° Southeast 500 575 31,000  Level Toronto Center
05:31AM 46.4667 -83.2667 136° Southeast 500 575 31,000  Level Toronto Center
05:32AM 46.3667 -83.1167 134° Southeast 500 575 31,000  Level Toronto Center
05:33AM 46.2667 -82.9667 134° Southeast 500 575 31,000  Level Toronto Center
05:34AM 46.1500 -82.8167 138° Southeast 500 575 31,000  Level Toronto Center
05:35AM 46.0667 -82.6833 132° Southeast 500 575 31,000  Level Toronto Center
05:36AM 45.9667 -82.5667 141° Southeast 500 575 31,000  Level Toronto Center
05:37AM 45.8667 -82.4167 134° Southeast 500 575 31,000  Level Toronto Center
05:38AM 45.7667 -82.2667 134° Southeast 500 575 31,000  Level Toronto Center
05:39AM 45.6500 -82.1167 138° Southeast 510 587 31,000  Level Toronto Center
05:40AM 45.5500 -81.9833 137° Southeast 520 598 31,000  Level Toronto Center
05:41AM 45.4500 -81.8500 137° Southeast 510 587 31,000  Level Toronto Center
05:42AM 45.3500 -81.7167 137° Southeast 510 587 31,000  Level Toronto Center
05:43AM 45.2333 -81.5667 138° Southeast 510 587 31,000  Level Toronto Center
05:44AM 45.1333 -81.4333 137° Southeast 510 587 31,000  Level Toronto Center
05:45AM 45.0333 -81.3000 137° Southeast 510 587 31,000 -100 Level Toronto Center
05:46AM 44.9333 -81.1667 137° Southeast 510 587 30,800 -750 Descending Toronto Center
05:47AM 44.8333 -81.0500 140° Southeast 480 552 29,500 -1,600 Descending Toronto Center
05:48AM 44.7333 -80.9000 133° Southeast 460 529 27,600 -1,850 Descending Toronto Center
05:49AM 44.6667 -80.8000 133° Southeast 450 518 25,800 -1,800 Descending Toronto Center
05:50AM 44.5667 -80.6833 140° Southeast 430 495 24,000 -1,750 Descending Toronto Center
05:51AM 44.4833 -80.5667 135° Southeast 420 483 22,300 -1,700 Descending Toronto Center
05:52AM 44.4000 -80.4667 139° Southeast 410 472 20,600 -1,650 Descending Toronto Center
05:53AM 44.3167 -80.3500 135° Southeast 400 460 19,000 -1,500 Descending Toronto Center
05:54AM 44.2333 -80.2667 144° Southeast 380 437 17,600 -1,600 Descending Toronto Center
05:55AM 44.1667 -80.1667 133° Southeast 370 426 15,800 -1,700 Descending Toronto Center
05:56AM 44.0833 -80.0667 139° Southeast 360 414 14,200 -1,500 Descending Toronto Center
05:57AM 44.0167 -80.0000 144° Southeast 350 403 12,800 -1,150 Descending Toronto Center
05:58AM 43.9333 -79.9167 144° Southeast 340 391 11,900 -1,150 Descending Toronto Center
05:59AM 43.8667 -79.8333 138° Southeast 320 368 10,500 -1,400 Descending Toronto Center
06:00AM 43.8000 -79.7667 144° Southeast 310 357 9,100 -1,200 Descending Toronto Center
06:01AM 43.7333 -79.7333 160° South 290 334 8,100 -1,200 Descending Toronto Center
06:02AM 43.6833 -79.8000 224° Southwest 250 288 6,700 -1,250 Descending Toronto Center
06:03AM 43.6333 -79.8667 224° Southwest 250 288 5,600 -1,050 Descending Toronto Center
06:04AM 43.5833 -79.8667 180° South 210 242 4,600 -750 Descending Toronto Center
06:05AM 43.5500 -79.8167 133° Southeast 190 219 4,100 -900 Descending Toronto Center
06:06AM 43.5833 -79.7500 55° Northeast 190 219 2,800 -1,100 Descending Toronto Center
06:07AM 43.6167 -79.7000 47° Northeast 170 196 1,900 -850 Descending Toronto Center
06:08AM 43.6500 -79.6833 20° North 140 161 1,100 -700 Descending Toronto Center
06:09AM 43.6667 -79.6333 65° Northeast 140 161 500 -600 Descending Toronto Center